Time;durP1;ratioP1;P1;durP2;ratioP2;P2;SDS_P1;SDS_P2;PMS_P1;PMS_P2;Temp;Humidity;BMP_temperature;BMP_pressure;BME280_temperature;BME280_humidity;BME280_pressure;Samples;Min_cycle;Max_cycle;Signal;HPM_P1;HPM_P2
2022/08/25 00:01:51;;;;;;;4.85;3.33;;;;;;;18.30;97.13;96596.53;5075119;28;20203;-51
2022/08/25 00:04:18;;;;;;;3.60;3.30;;;;;;;18.26;97.44;96589.91;5073896;28;20299;-52
2022/08/25 00:06:46;;;;;;;3.22;3.00;;;;;;;18.28;96.81;96582.53;5055847;28;20234;-52
2022/08/25 00:09:16;;;;;;;3.92;3.60;;;;;;;18.28;97.26;96593.25;5057473;28;20272;-53
2022/08/25 00:11:44;;;;;;;5.47;3.50;;;;;;;18.14;98.85;96592.25;5057595;28;20302;-53
2022/08/25 00:14:13;;;;;;;3.60;3.30;;;;;;;18.14;98.26;96591.47;5057554;28;20294;-54
2022/08/25 00:16:42;;;;;;;3.95;3.65;;;;;;;18.10;98.40;96596.38;5056698;28;20298;-51
2022/08/25 00:19:12;;;;;;;3.72;3.42;;;;;;;18.20;96.91;96596.03;5057276;28;20253;-52
2022/08/25 00:21:40;;;;;;;4.10;3.78;;;;;;;18.09;98.96;96593.88;5056966;28;20286;-52
2022/08/25 00:24:07;;;;;;;3.75;3.42;;;;;;;18.05;98.79;96593.41;5057018;28;20294;-52
2022/08/25 00:26:34;;;;;;;3.83;3.53;;;;;;;18.08;98.77;96594.88;5056980;28;20217;-51
2022/08/25 00:29:01;;;;;;;3.67;3.38;;;;;;;18.09;98.45;96593.88;5056739;28;20242;-52
2022/08/25 00:31:28;;;;;;;4.35;3.95;;;;;;;18.07;98.83;96585.19;5056879;28;20261;-52
2022/08/25 00:33:56;;;;;;;3.85;3.55;;;;;;;18.10;98.56;96595.53;5056761;28;20250;-52
2022/08/25 00:36:22;;;;;;;3.85;3.55;;;;;;;18.04;99.38;96591.75;5043464;28;20221;-52
2022/08/25 00:38:49;;;;;;;3.88;3.58;;;;;;;17.99;100.00;96596.88;5056415;28;20249;-53
2022/08/25 00:41:19;;;;;;;4.15;3.80;;;;;;;17.94;100.00;96596.59;5046458;28;20213;-53
2022/08/25 00:43:50;;;;;;;4.00;3.65;;;;;;;17.95;100.00;96590.25;5056295;28;20207;-53
2022/08/25 00:46:19;;;;;;;4.15;3.75;;;;;;;17.87;100.00;96598.38;5057077;28;20195;-52
2022/08/25 00:48:49;;;;;;;4.13;3.80;;;;;;;17.86;100.00;96594.88;5055703;28;20243;-52
2022/08/25 00:51:25;;;;;;;4.25;3.85;;;;;;;17.86;100.00;96599.38;5056948;28;20211;-52
2022/08/25 00:53:52;;;;;;;4.65;4.25;;;;;;;17.82;100.00;96598.09;5055865;28;20298;-53
2022/08/25 00:56:19;;;;;;;4.88;4.40;;;;;;;17.74;100.00;96599.06;5056823;28;20246;-54
2022/08/25 00:58:46;;;;;;;4.20;3.78;;;;;;;17.74;100.00;96600.91;5056363;28;20305;-52
2022/08/25 01:01:12;;;;;;;3.75;3.53;;;;;;;17.78;100.00;96596.84;5056139;28;20652;-52
2022/08/25 01:03:39;;;;;;;4.00;3.70;;;;;;;17.76;100.00;96599.69;5056283;28;20600;-53
2022/08/25 01:06:08;;;;;;;4.13;3.78;;;;;;;17.67;100.00;96600.84;5055475;28;20243;-52
2022/08/25 01:08:37;;;;;;;4.03;3.70;;;;;;;17.71;100.00;96596.75;5042777;28;20215;-52
2022/08/25 01:11:06;;;;;;;4.20;3.90;;;;;;;17.70;100.00;96594.28;5055794;28;20230;-52
2022/08/25 01:13:35;;;;;;;4.30;4.00;;;;;;;17.62;100.00;96603.22;5055877;28;20318;-52
2022/08/25 01:16:03;;;;;;;4.10;3.72;;;;;;;17.73;100.00;96599.25;5055848;28;20235;-52
2022/08/25 01:18:43;;;;;;;4.15;3.85;;;;;;;17.62;100.00;96595.22;5055473;28;20286;-52
2022/08/25 01:21:11;;;;;;;4.63;4.18;;;;;;;17.60;100.00;96599.94;5056314;28;20292;-51
2022/08/25 01:23:38;;;;;;;4.30;3.83;;;;;;;17.59;100.00;96598.25;5055631;28;20654;-52
2022/08/25 01:26:08;;;;;;;4.65;4.30;;;;;;;17.59;100.00;96597.44;5055704;28;20234;-52
2022/08/25 01:28:36;;;;;;;4.63;4.10;;;;;;;17.61;100.00;96596.22;5047430;28;20240;-53
2022/08/25 01:31:03;;;;;;;4.55;4.15;;;;;;;17.55;100.00;96593.44;5051804;28;20265;-52
2022/08/25 01:33:30;;;;;;;4.63;4.22;;;;;;;17.53;100.00;96596.31;5055575;28;20223;-53
2022/08/25 01:35:57;;;;;;;4.72;4.10;;;;;;;17.51;100.00;96601.00;5055274;28;20223;-53
2022/08/25 01:38:26;;;;;;;4.53;4.20;;;;;;;17.43;100.00;96599.25;5055405;28;20631;-53
2022/08/25 01:40:53;;;;;;;4.60;4.30;;;;;;;17.52;100.00;96608.03;5055703;28;20219;-52
2022/08/25 01:43:27;;;;;;;4.30;4.00;;;;;;;17.50;100.00;96602.00;5055553;28;20293;-52
2022/08/25 01:45:53;;;;;;;5.45;4.38;;;;;;;17.44;100.00;96594.75;5055125;28;20238;-52
2022/08/25 01:48:20;;;;;;;4.30;4.00;;;;;;;17.46;100.00;96597.25;5044400;28;20271;-52
2022/08/25 01:50:47;;;;;;;5.10;4.55;;;;;;;17.48;100.00;96590.69;5053417;28;20243;-52
2022/08/25 01:53:19;;;;;;;4.82;4.50;;;;;;;17.41;100.00;96590.63;5055867;28;20321;-52
2022/08/25 01:56:00;;;;;;;4.75;4.45;;;;;;;17.37;100.00;96593.84;5055625;28;20643;-52
2022/08/25 01:58:29;;;;;;;4.88;4.10;;;;;;;17.44;100.00;96597.41;5055793;28;20286;-52
2022/08/25 02:01:00;;;;;;;5.00;4.50;;;;;;;17.36;100.00;96586.81;5043070;28;20295;-52
2022/08/25 02:03:27;;;;;;;4.30;4.00;;;;;;;17.37;100.00;96593.84;5056096;28;20715;-51
2022/08/25 02:05:56;;;;;;;4.35;4.05;;;;;;;17.27;100.00;96582.59;5054779;28;20242;-52
2022/08/25 02:08:23;;;;;;;4.90;4.50;;;;;;;17.22;100.00;96585.00;5055213;28;20554;-52
2022/08/25 02:10:52;;;;;;;4.93;4.32;;;;;;;17.27;100.00;96590.63;5055100;28;20231;-52
2022/08/25 02:13:19;;;;;;;5.82;4.57;;;;;;;17.30;100.00;96588.41;5055285;28;20227;-52
2022/08/25 02:15:47;;;;;;;4.60;4.22;;;;;;;17.21;100.00;96594.88;5054856;28;20211;-52
2022/08/25 02:18:14;;;;;;;5.05;4.70;;;;;;;17.13;100.00;96591.47;5054485;28;20290;-53
2022/08/25 02:20:41;;;;;;;4.70;4.30;;;;;;;17.11;100.00;96594.31;5055017;28;20238;-52
2022/08/25 02:23:09;;;;;;;4.82;4.35;;;;;;;17.11;100.00;96593.50;5054740;28;20249;-53
2022/08/25 02:25:37;;;;;;;5.00;4.60;;;;;;;17.08;100.00;96599.19;5054105;28;20286;-52
2022/08/25 02:28:07;;;;;;;4.45;4.13;;;;;;;17.03;100.00;96605.09;5054391;28;20641;-52
2022/08/25 02:30:34;;;;;;;4.45;4.15;;;;;;;17.01;100.00;96606.28;5054464;28;20221;-52
2022/08/25 02:33:00;;;;;;;4.50;4.20;;;;;;;17.00;100.00;96607.31;5054404;28;20321;-52
2022/08/25 02:35:28;;;;;;;5.20;4.70;;;;;;;16.98;100.00;96590.63;5054643;28;20302;-52
2022/08/25 02:37:55;;;;;;;4.35;4.10;;;;;;;17.01;100.00;96592.91;5053632;28;20246;-52
2022/08/25 02:40:22;;;;;;;6.30;4.35;;;;;;;17.00;100.00;96601.97;5054511;28;20702;-52
2022/08/25 02:42:49;;;;;;;5.03;4.35;;;;;;;16.99;100.00;96594.97;5054457;28;20291;-52
2022/08/25 02:45:18;;;;;;;4.30;4.00;;;;;;;16.97;100.00;96587.13;5054449;28;20704;-52
2022/08/25 02:47:45;;;;;;;4.82;4.32;;;;;;;16.89;100.00;96595.25;5040633;28;20691;-52
2022/08/25 02:50:12;;;;;;;4.55;4.20;;;;;;;16.90;100.00;96586.19;5054201;28;20297;-52
2022/08/25 02:52:40;;;;;;;4.75;4.45;;;;;;;16.88;100.00;96597.09;5054568;28;20227;-52
2022/08/25 02:55:11;;;;;;;4.93;4.43;;;;;;;16.84;100.00;96592.28;5054217;28;20206;-53
2022/08/25 02:57:40;;;;;;;4.40;4.10;;;;;;;16.78;100.00;96593.84;5041986;28;20211;-52
2022/08/25 03:00:09;;;;;;;5.05;4.30;;;;;;;16.77;100.00;96600.19;5054898;28;20234;-53
2022/08/25 03:02:37;;;;;;;4.63;4.20;;;;;;;16.71;100.00;96598.25;5054366;28;20210;-53
2022/08/25 03:05:06;;;;;;;5.07;4.70;;;;;;;16.67;100.00;96596.13;5054517;28;20655;-52
2022/08/25 03:07:33;;;;;;;5.47;4.50;;;;;;;16.68;100.00;96590.63;5067168;28;20211;-52
2022/08/25 03:09:59;;;;;;;5.38;4.78;;;;;;;16.74;100.00;96607.75;5060832;28;20635;-53
2022/08/25 03:12:26;;;;;;;4.40;4.05;;;;;;;16.70;100.00;96599.28;5045279;28;20303;-52
2022/08/25 03:14:53;;;;;;;4.60;4.30;;;;;;;16.69;100.00;96610.13;5070098;28;20191;-52
2022/08/25 03:17:20;;;;;;;4.35;4.00;;;;;;;16.66;100.00;96605.16;5075643;28;20191;-52
2022/08/25 03:19:48;;;;;;;5.45;4.63;;;;;;;16.63;100.00;96608.19;5077269;28;20183;-52
2022/08/25 03:22:14;;;;;;;4.67;4.37;;;;;;;16.71;100.00;96608.94;5077258;28;20195;-52
2022/08/25 03:24:41;;;;;;;4.73;4.40;;;;;;;16.71;100.00;96611.63;5060358;28;20232;-51
2022/08/25 03:27:07;;;;;;;4.68;4.38;;;;;;;16.65;100.00;96612.31;5057723;28;20191;-51
2022/08/25 03:29:34;;;;;;;5.07;4.65;;;;;;;16.57;100.00;96611.59;5057793;28;20238;-52
2022/08/25 03:32:01;;;;;;;5.25;4.75;;;;;;;16.49;100.00;96608.94;5067393;28;20186;-51
2022/08/25 03:34:29;;;;;;;5.10;4.75;;;;;;;16.58;100.00;96616.72;5077088;28;20248;-52
2022/08/25 03:36:58;;;;;;;4.60;4.30;;;;;;;16.55;100.00;96614.38;5064358;28;20208;-52
2022/08/25 03:39:26;;;;;;;7.07;4.77;;;;;;;16.52;100.00;96614.75;5067504;28;20227;-52
2022/08/25 03:41:53;;;;;;;5.57;5.07;;;;;;;16.49;100.00;96615.13;5076087;28;20183;-52
2022/08/25 03:44:21;;;;;;;5.03;4.63;;;;;;;16.48;100.00;96610.78;5064224;28;20238;-52
2022/08/25 03:46:49;;;;;;;6.10;4.83;;;;;;;16.51;100.00;96612.28;5046539;28;20659;-52
2022/08/25 03:49:22;;;;;;;5.20;4.80;;;;;;;16.46;100.00;96610.16;5062612;28;20612;-52
2022/08/25 03:51:51;;;;;;;5.17;4.70;;;;;;;16.49;100.00;96604.44;5066314;28;20574;-52
2022/08/25 03:54:21;;;;;;;5.10;4.70;;;;;;;16.47;100.00;96603.81;5065523;28;20284;-52
2022/08/25 03:56:48;;;;;;;5.37;4.87;;;;;;;16.46;100.00;96603.97;5067100;28;20634;-57
2022/08/25 03:59:15;;;;;;;5.07;4.67;;;;;;;16.48;100.00;96596.59;5068414;28;20203;-52
2022/08/25 04:01:43;;;;;;;5.28;4.72;;;;;;;16.53;100.00;96595.06;5073063;28;20203;-54
2022/08/25 04:04:11;;;;;;;6.05;4.85;;;;;;;16.47;100.00;96601.13;5065857;28;20214;-53
2022/08/25 04:06:38;;;;;;;4.90;4.50;;;;;;;16.41;100.00;96601.84;5057110;28;20680;-53
2022/08/25 04:09:05;;;;;;;5.60;4.93;;;;;;;16.39;100.00;96606.53;5057058;28;20245;-52
2022/08/25 04:11:34;;;;;;;5.23;4.73;;;;;;;16.37;100.00;96603.19;5057885;28;20286;-52
2022/08/25 04:14:01;;;;;;;6.93;5.17;;;;;;;16.32;100.00;96598.44;5057305;28;20310;-52
2022/08/25 04:16:30;;;;;;;5.40;5.00;;;;;;;16.35;100.00;96600.72;5057363;28;20211;-51
2022/08/25 04:18:57;;;;;;;5.63;5.20;;;;;;;16.31;100.00;96598.59;5057125;28;20214;-52
2022/08/25 04:21:25;;;;;;;5.03;4.63;;;;;;;16.26;100.00;96601.00;5057772;28;20235;-51
2022/08/25 04:23:53;;;;;;;5.50;4.93;;;;;;;16.21;100.00;96600.69;5057317;28;20291;-53
2022/08/25 04:26:23;;;;;;;5.80;5.20;;;;;;;16.26;100.00;96606.31;5056973;28;20242;-52
2022/08/25 04:28:52;;;;;;;5.43;4.93;;;;;;;16.26;100.00;96604.47;5045902;28;20237;-52
2022/08/25 04:31:20;;;;;;;6.00;5.07;;;;;;;16.27;100.00;96599.94;5055721;28;20234;-53
2022/08/25 04:33:47;;;;;;;5.43;4.93;;;;;;;16.23;100.00;96593.31;5056968;28;20234;-53
2022/08/25 04:36:15;;;;;;;6.10;5.10;;;;;;;16.22;100.00;96597.84;5056914;28;20538;-52
2022/08/25 04:38:43;;;;;;;5.30;4.90;;;;;;;16.28;100.00;96602.47;5056613;28;20252;-53
2022/08/25 04:41:11;;;;;;;5.53;5.03;;;;;;;16.26;100.00;96604.47;5056490;28;20611;-52
2022/08/25 04:43:39;;;;;;;5.87;5.37;;;;;;;16.23;100.00;96606.66;5056487;28;20593;-52
2022/08/25 04:46:10;;;;;;;5.93;5.43;;;;;;;16.21;100.00;96606.84;5045033;28;20583;-52
2022/08/25 04:48:38;;;;;;;5.97;5.47;;;;;;;16.22;100.00;96605.84;5055861;28;20234;-54
2022/08/25 04:51:05;;;;;;;5.40;5.00;;;;;;;16.24;100.00;96600.31;5043870;28;20230;-52
2022/08/25 04:53:32;;;;;;;6.05;5.00;;;;;;;16.30;100.00;96610.25;5056116;28;20262;-52
2022/08/25 04:55:59;;;;;;;5.70;5.20;;;;;;;16.28;100.00;96606.97;5056972;28;20199;-52
2022/08/25 04:58:26;;;;;;;5.90;5.40;;;;;;;16.26;100.00;96601.00;5056104;28;20286;-52
2022/08/25 05:00:53;;;;;;;5.77;5.27;;;;;;;16.31;100.00;96601.25;5056776;28;20294;-52
2022/08/25 05:03:21;;;;;;;5.25;4.85;;;;;;;16.37;100.00;96600.53;5056313;28;20230;-52
2022/08/25 05:05:48;;;;;;;5.40;5.00;;;;;;;16.36;100.00;96598.91;5056180;28;20239;-53
2022/08/25 05:08:14;;;;;;;5.57;5.07;;;;;;;16.35;100.00;96599.91;5056151;28;20235;-51
2022/08/25 05:10:41;;;;;;;6.05;4.80;;;;;;;16.39;100.00;96599.38;5056652;28;20242;-53
2022/08/25 05:13:08;;;;;;;5.67;5.27;;;;;;;16.39;100.00;96593.19;5056132;28;21219;-53
2022/08/25 05:15:50;;;;;;;6.00;5.00;;;;;;;16.42;100.00;96593.66;5056911;28;20231;-53
2022/08/25 05:18:17;;;;;;;6.57;5.00;;;;;;;16.49;100.00;96595.59;5056515;28;20210;-52
2022/08/25 05:20:45;;;;;;;5.67;5.17;;;;;;;16.57;100.00;96601.75;5046060;28;20223;-52
2022/08/25 05:23:11;;;;;;;5.90;5.20;;;;;;;16.59;100.00;96602.38;5054343;28;20709;-53
2022/08/25 05:25:39;;;;;;;6.80;6.20;;;;;;;16.64;100.00;96601.84;5055971;28;20199;-54
2022/08/25 05:28:05;;;;;;;5.70;5.28;;;;;;;16.71;100.00;96602.78;5055359;28;20278;-53
2022/08/25 05:30:32;;;;;;;5.73;5.23;;;;;;;16.75;100.00;96599.56;5056509;28;20570;-52
2022/08/25 05:32:59;;;;;;;6.00;5.40;;;;;;;16.83;100.00;96599.47;5055651;28;20245;-52
2022/08/25 05:35:25;;;;;;;5.87;5.33;;;;;;;16.90;100.00;96597.72;5056104;28;20286;-52
2022/08/25 05:37:56;;;;;;;6.15;5.65;;;;;;;16.95;100.00;96588.31;5055853;28;20290;-52
2022/08/25 05:40:23;;;;;;;5.80;5.18;;;;;;;17.08;100.00;96588.50;5056141;28;20539;-54
2022/08/25 05:42:50;;;;;;;6.20;5.63;;;;;;;17.22;100.00;96583.16;5055793;28;20632;-52
2022/08/25 05:45:17;;;;;;;5.75;5.25;;;;;;;17.43;100.00;96593.09;5055880;28;20595;-53
2022/08/25 05:47:44;;;;;;;7.25;5.65;;;;;;;17.66;100.00;96588.47;5055405;28;20296;-51
2022/08/25 05:50:11;;;;;;;5.68;5.28;;;;;;;18.00;100.00;96597.66;5055327;28;20659;-52
2022/08/25 05:52:38;;;;;;;7.93;6.20;;;;;;;18.55;100.00;96594.31;5042285;28;20247;-51
2022/08/25 05:55:07;;;;;;;6.80;6.10;;;;;;;19.36;100.00;96588.25;5055555;28;20223;-53
2022/08/25 05:57:34;;;;;;;5.93;5.38;;;;;;;20.31;96.04;96583.66;5051526;28;20296;-52
2022/08/25 06:00:01;;;;;;;6.70;6.10;;;;;;;21.16;89.24;96579.28;5055761;28;20286;-54
2022/08/25 06:05:20;;;;;;;6.43;5.70;;;;;;;22.75;76.70;96586.34;5024968;28;20283;-54
2022/08/25 06:07:48;;;;;;;6.53;4.70;;;;;;;22.83;75.50;96579.84;5055257;28;20245;-53
2022/08/25 06:10:16;;;;;;;5.88;5.38;;;;;;;23.00;74.28;96564.75;5055614;28;20286;-52
2022/08/25 06:12:44;;;;;;;6.38;5.00;;;;;;;23.40;72.99;96570.56;5055184;28;20282;-53
2022/08/25 06:15:12;;;;;;;5.65;5.00;;;;;;;23.66;71.38;96567.59;5055224;28;20313;-54
2022/08/25 06:17:41;;;;;;;6.57;5.47;;;;;;;23.51;71.40;96573.38;5055005;28;20230;-54
2022/08/25 06:20:10;;;;;;;6.03;5.53;;;;;;;23.70;71.85;96575.00;5054095;28;20276;-52
2022/08/25 06:22:37;;;;;;;6.78;6.07;;;;;;;23.88;69.86;96579.53;5052311;28;20618;-53
2022/08/25 06:25:05;;;;;;;6.10;5.53;;;;;;;23.84;69.24;96582.94;5055116;28;20250;-53
2022/08/25 06:27:34;;;;;;;7.20;6.00;;;;;;;23.53;72.65;96590.16;5055306;28;20235;-53
2022/08/25 06:30:03;;;;;;;6.18;5.65;;;;;;;23.73;70.35;96582.66;5044794;28;20229;-54
2022/08/25 06:32:31;;;;;;;6.43;5.82;;;;;;;23.50;70.28;96578.97;5055799;28;20282;-53
2022/08/25 06:34:58;;;;;;;6.97;6.30;;;;;;;23.48;69.20;96579.22;5052489;28;20225;-53
2022/08/25 06:37:25;;;;;;;8.63;6.20;;;;;;;23.35;74.07;96575.81;5054454;28;20206;-53
2022/08/25 06:39:52;;;;;;;6.47;5.82;;;;;;;23.35;73.10;96571.22;5054917;28;20286;-53
2022/08/25 06:42:20;;;;;;;6.32;5.80;;;;;;;23.29;73.15;96574.81;5054425;28;20207;-53
2022/08/25 06:44:48;;;;;;;5.97;5.50;;;;;;;23.65;72.35;96571.34;5054297;28;20290;-51
2022/08/25 06:47:15;;;;;;;6.55;5.95;;;;;;;23.61;70.32;96567.44;5054205;28;20766;-52
2022/08/25 06:49:42;;;;;;;7.35;6.50;;;;;;;23.61;71.40;96562.88;5054806;28;20557;-52
2022/08/25 06:52:09;;;;;;;7.90;5.90;;;;;;;23.90;68.76;96565.81;5053026;28;20559;-52
2022/08/25 06:54:35;;;;;;;11.45;5.40;;;;;;;24.23;68.21;96560.81;5054647;28;20257;-51
2022/08/25 06:57:03;;;;;;;8.02;5.38;;;;;;;24.52;65.56;96564.50;5054801;28;20230;-52
2022/08/25 06:59:30;;;;;;;6.38;5.70;;;;;;;24.43;64.97;96563.22;5055375;28;20246;-51
2022/08/25 07:01:58;;;;;;;8.55;5.50;;;;;;;24.50;65.02;96558.53;5054543;28;20286;-53
2022/08/25 07:04:25;;;;;;;7.25;5.80;;;;;;;24.74;65.21;96562.91;5054160;28;20601;-51
2022/08/25 07:06:52;;;;;;;5.97;4.90;;;;;;;24.74;63.37;96558.31;5054627;28;20235;-52
2022/08/25 07:09:19;;;;;;;6.65;5.97;;;;;;;24.68;63.74;96564.69;5055328;28;20289;-52
2022/08/25 07:11:46;;;;;;;5.68;4.88;;;;;;;25.11;64.73;96560.84;5054534;28;20238;-51
2022/08/25 07:14:14;;;;;;;5.53;5.03;;;;;;;25.01;64.30;96564.13;5054519;28;20615;-52
2022/08/25 07:16:43;;;;;;;39.67;7.93;;;;;;;25.25;61.37;96564.94;5055927;28;20538;-53
2022/08/25 07:19:11;;;;;;;39.30;8.20;;;;;;;25.20;60.32;96575.66;5058055;28;20203;-53
2022/08/25 07:21:40;;;;;;;27.52;7.18;;;;;;;25.18;62.34;96575.06;5058539;28;20245;-52
2022/08/25 07:24:08;;;;;;;7.47;5.10;;;;;;;25.24;59.90;96568.72;5058237;28;20250;-53
2022/08/25 07:26:35;;;;;;;4.85;4.35;;;;;;;25.56;59.25;96567.28;5057457;28;20268;-51
2022/08/25 07:29:02;;;;;;;5.72;4.53;;;;;;;25.56;60.15;96561.03;5058193;28;20577;-51
2022/08/25 07:31:30;;;;;;;5.10;4.57;;;;;;;25.60;59.01;96568.44;5058480;28;20211;-51
2022/08/25 07:36:43;;;;;;;5.43;4.57;;;;;;;25.56;58.01;96564.56;5046421;28;20202;-52
2022/08/25 07:39:10;;;;;;;4.57;4.18;;;;;;;25.55;58.82;96567.50;5058364;28;20607;-52
2022/08/25 07:41:38;;;;;;;4.90;4.43;;;;;;;25.52;60.35;96568.81;5059048;28;20289;-52
2022/08/25 07:44:04;;;;;;;5.22;4.72;;;;;;;25.52;59.39;96568.81;5061521;28;20605;-52
2022/08/25 07:46:31;;;;;;;5.00;4.50;;;;;;;25.33;59.14;96561.06;5061942;28;20199;-52
2022/08/25 07:48:58;;;;;;;5.13;4.68;;;;;;;25.59;59.84;96565.97;5063424;28;20274;-53
2022/08/25 07:51:25;;;;;;;6.80;4.35;;;;;;;25.47;58.83;96568.66;5063817;28;20267;-53
2022/08/25 07:53:53;;;;;;;28.90;7.50;;;;;;;25.47;58.79;96565.94;5065278;28;20629;-53
2022/08/25 07:56:21;;;;;;;9.30;5.10;;;;;;;25.41;58.88;96571.50;5066647;28;20233;-53
2022/08/25 07:58:48;;;;;;;5.15;4.68;;;;;;;25.28;59.70;96561.75;5062299;28;20243;-52
2022/08/25 08:01:15;;;;;;;4.82;4.32;;;;;;;25.12;59.85;96566.00;5057595;28;20250;-52
2022/08/25 08:03:42;;;;;;;25.58;6.32;;;;;;;25.20;58.24;96572.94;5057373;28;20243;-51
2022/08/25 08:06:11;;;;;;;9.07;4.20;;;;;;;25.40;59.24;96565.25;5057970;28;20235;-52
2022/08/25 08:08:38;;;;;;;5.07;3.90;;;;;;;25.51;59.37;96555.50;5056776;28;20249;-52
2022/08/25 08:11:06;;;;;;;4.93;3.67;;;;;;;25.65;59.78;96557.72;5057754;28;20289;-52
2022/08/25 08:13:33;;;;;;;4.75;4.18;;;;;;;25.36;57.91;96566.81;5057397;28;20662;-52
2022/08/25 08:16:00;;;;;;;4.60;4.20;;;;;;;25.45;58.27;96561.84;5057769;28;20226;-52
2022/08/25 08:18:27;;;;;;;8.85;4.28;;;;;;;25.22;58.93;96573.53;5057462;28;20285;-52
2022/08/25 08:20:53;;;;;;;6.95;3.95;;;;;;;25.22;57.51;96560.81;5057295;28;20280;-52
2022/08/25 08:23:26;;;;;;;10.85;4.80;;;;;;;25.17;57.46;96573.41;5057191;28;20302;-51
2022/08/25 08:25:53;;;;;;;72.15;10.07;;;;;;;25.54;58.14;96572.09;5057631;28;20222;-53
2022/08/25 08:28:21;;;;;;;15.00;5.82;;;;;;;25.63;57.23;96576.09;5056455;28;20286;-51
2022/08/25 08:30:48;;;;;;;6.07;4.10;;;;;;;25.83;56.80;96572.97;5056269;28;20278;-52
2022/08/25 08:33:14;;;;;;;8.95;3.90;;;;;;;25.99;55.20;96569.50;5056323;28;20230;-52
2022/08/25 08:35:41;;;;;;;5.68;3.42;;;;;;;26.06;52.92;96564.75;5056885;28;20374;-53
2022/08/25 08:38:08;;;;;;;3.97;3.33;;;;;;;26.14;55.92;96572.53;5056103;28;20233;-52
2022/08/25 08:40:42;;;;;;;3.95;3.10;;;;;;;26.34;53.79;96576.69;5056714;28;20203;-52
2022/08/25 08:43:12;;;;;;;3.60;3.13;;;;;;;26.56;54.81;96567.59;5056107;28;20231;-50
2022/08/25 08:45:43;;;;;;;3.88;3.50;;;;;;;26.63;53.56;96572.88;5055360;28;20667;-52
2022/08/25 08:48:44;;;;;;;4.47;3.22;;;;;;;26.51;53.12;96575.66;5056574;28;20282;-51
2022/08/25 08:51:18;;;;;;;5.13;3.30;;;;;;;26.57;52.81;96569.22;5045479;28;20246;-51
2022/08/25 08:53:48;;;;;;;9.07;4.63;;;;;;;26.81;51.90;96572.63;5056355;28;20294;-52
2022/08/25 08:56:17;;;;;;;21.00;4.88;;;;;;;27.09;52.15;96571.75;5056248;28;20230;-52
2022/08/25 08:58:46;;;;;;;4.32;4.00;;;;;;;26.55;51.23;96576.81;5056135;28;20290;-51
2022/08/25 09:01:17;;;;;;;4.13;3.30;;;;;;;26.77;52.77;96570.66;5056774;28;20281;-52
2022/08/25 09:03:47;;;;;;;3.30;3.00;;;;;;;26.84;51.86;96568.63;5056327;28;20285;-53
2022/08/25 09:06:18;;;;;;;4.78;3.67;;;;;;;26.93;51.55;96573.38;5056538;28;20234;-52
2022/08/25 09:08:45;;;;;;;3.72;3.42;;;;;;;27.12;52.37;96565.81;5056247;28;20245;-53
2022/08/25 09:11:20;;;;;;;3.53;3.28;;;;;;;27.17;52.99;96565.91;5056348;28;20246;-51
2022/08/25 09:14:07;;;;;;;3.60;3.13;;;;;;;27.14;52.69;96563.66;5056216;28;20249;-52
2022/08/25 09:16:57;;;;;;;4.22;3.83;;;;;;;27.50;52.88;96565.84;5055783;28;20680;-52
2022/08/25 09:19:53;;;;;;;5.00;4.13;;;;;;;27.23;52.74;96561.34;5056637;28;20602;-52
2022/08/25 09:22:28;;;;;;;3.63;3.40;;;;;;;27.12;52.10;96554.94;5044738;28;20243;-51
2022/08/25 09:25:00;;;;;;;4.93;3.67;;;;;;;27.06;50.66;96556.78;5056208;28;20199;-53
2022/08/25 09:27:33;;;;;;;3.35;3.05;;;;;;;27.25;51.99;96559.19;5055290;28;20622;-52
2022/08/25 09:30:04;;;;;;;4.20;3.90;;;;;;;27.20;52.57;96565.38;5049226;28;20209;-52
2022/08/25 09:32:36;;;;;;;4.45;3.63;;;;;;;27.20;51.71;96565.38;5055080;28;20290;-51
2022/08/25 09:35:03;;;;;;;4.35;4.00;;;;;;;27.08;52.88;96559.22;5055329;28;20258;-52
2022/08/25 09:37:30;;;;;;;4.18;3.70;;;;;;;27.45;52.91;96559.53;5054860;28;20238;-53
2022/08/25 09:39:56;;;;;;;5.50;3.97;;;;;;;27.38;52.40;96562.41;5054287;28;20195;-53
2022/08/25 09:42:48;;;;;;;4.00;3.70;;;;;;;27.59;49.90;96556.19;5055569;28;20702;-51
2022/08/25 09:45:15;;;;;;;4.28;3.33;;;;;;;27.84;51.79;96563.00;5055589;28;20215;-51
2022/08/25 09:47:45;;;;;;;4.45;4.00;;;;;;;28.11;51.03;96564.72;5055111;28;20318;-51
2022/08/25 09:50:15;;;;;;;3.83;3.53;;;;;;;28.17;49.79;96551.97;5056023;28;20227;-52
2022/08/25 09:52:43;;;;;;;4.00;3.58;;;;;;;28.60;51.44;96546.41;5042045;28;20249;-51
2022/08/25 09:55:26;;;;;;;4.93;3.75;;;;;;;27.96;50.60;96550.91;5055345;28;20223;-52
2022/08/25 09:57:55;;;;;;;4.95;3.80;;;;;;;28.30;50.54;96548.88;5044018;28;20260;-52
2022/08/25 10:00:24;;;;;;;8.57;3.92;;;;;;;28.17;50.93;96543.81;5054868;28;20207;-52
2022/08/25 10:03:21;;;;;;;3.85;3.47;;;;;;;28.46;50.65;96538.94;5055462;28;20710;-52
2022/08/25 10:05:59;;;;;;;3.78;3.47;;;;;;;28.83;51.49;96541.75;5043123;28;20243;-51
2022/08/25 10:08:31;;;;;;;6.32;3.70;;;;;;;28.50;48.26;96540.06;5054868;28;20199;-51
2022/08/25 10:11:00;;;;;;;5.00;3.67;;;;;;;28.55;49.12;96540.13;5055418;28;20295;-52
2022/08/25 10:13:39;;;;;;;3.42;3.13;;;;;;;28.87;49.72;96531.97;5055092;28;20238;-53
2022/08/25 10:16:09;;;;;;;4.10;3.80;;;;;;;28.79;49.29;96532.44;5054984;28;20207;-53
2022/08/25 10:18:37;;;;;;;3.40;3.10;;;;;;;29.02;49.45;96527.44;5054538;28;20606;-52
2022/08/25 10:21:08;;;;;;;4.15;3.45;;;;;;;29.10;47.79;96528.84;5054604;28;20254;-53
2022/08/25 10:23:37;;;;;;;3.65;3.15;;;;;;;29.22;47.57;96520.50;5055493;28;20250;-52
2022/08/25 10:26:10;;;;;;;3.75;3.33;;;;;;;29.31;47.24;96522.47;5054889;28;20601;-52
2022/08/25 10:28:41;;;;;;;5.00;3.50;;;;;;;29.03;45.81;96517.38;5055045;28;20278;-52
2022/08/25 10:31:15;;;;;;;3.92;3.50;;;;;;;29.10;49.01;96515.25;5055094;28;20294;-53
2022/08/25 10:33:52;;;;;;;3.95;3.65;;;;;;;28.96;47.37;96511.34;5054958;28;20286;-53
2022/08/25 10:36:22;;;;;;;4.20;3.70;;;;;;;29.07;46.28;96513.88;5054738;28;20254;-53
2022/08/25 10:38:52;;;;;;;3.88;3.42;;;;;;;29.09;48.13;96505.41;5054575;28;20291;-53
2022/08/25 10:41:30;;;;;;;6.40;3.85;;;;;;;29.10;47.77;96498.91;5041990;28;20211;-54
2022/08/25 10:44:03;;;;;;;3.67;3.38;;;;;;;29.25;49.38;96503.63;5054659;28;20237;-54
2022/08/25 10:46:34;;;;;;;4.03;3.47;;;;;;;29.49;47.86;96492.06;5054444;28;20234;-53
2022/08/25 10:49:05;;;;;;;3.67;3.38;;;;;;;29.51;45.42;96489.88;5053915;28;20257;-54
2022/08/25 10:51:39;;;;;;;3.80;3.50;;;;;;;29.40;48.08;96490.94;5053996;28;20231;-54
2022/08/25 10:54:22;;;;;;;4.32;3.33;;;;;;;29.28;46.40;96481.31;5054584;28;20241;-54
2022/08/25 10:56:56;;;;;;;3.33;3.13;;;;;;;29.38;48.46;96479.47;5048542;28;20284;-53
2022/08/25 10:59:38;;;;;;;3.97;3.20;;;;;;;29.72;47.07;96479.06;5054379;28;20241;-53
2022/08/25 11:02:53;;;;;;;4.15;3.75;;;;;;;29.88;47.65;96475.31;5054278;28;20203;-53
2022/08/25 11:05:26;;;;;;;4.05;3.20;;;;;;;30.01;46.83;96475.63;5032384;28;20740;-54
2022/08/25 11:07:55;;;;;;;4.78;3.90;;;;;;;29.93;45.39;96475.34;5052788;28;20238;-53
2022/08/25 11:10:25;;;;;;;3.50;3.20;;;;;;;29.85;45.75;96475.84;5054330;28;20235;-54
2022/08/25 11:12:58;;;;;;;3.65;3.35;;;;;;;30.06;44.72;96472.09;5054759;28;20227;-52
2022/08/25 11:15:28;;;;;;;5.22;3.58;;;;;;;29.57;44.73;96472.47;5044392;28;20218;-52
2022/08/25 11:17:58;;;;;;;3.90;3.60;;;;;;;29.77;46.21;96476.34;5053730;28;20298;-54
2022/08/25 11:20:32;;;;;;;3.42;3.10;;;;;;;29.89;45.04;96466.06;5054133;28;20687;-52
2022/08/25 11:23:08;;;;;;;3.75;3.45;;;;;;;29.50;44.71;96458.28;5054547;28;20305;-52
2022/08/25 11:25:38;;;;;;;5.15;3.70;;;;;;;29.26;45.45;96462.53;5046183;28;20211;-52
2022/08/25 11:28:09;;;;;;;3.40;3.20;;;;;;;29.69;45.72;96455.88;5053647;28;20227;-51
2022/08/25 11:30:37;;;;;;;3.45;3.25;;;;;;;29.85;46.84;96454.88;5055288;28;20199;-52
2022/08/25 11:33:05;;;;;;;3.75;3.45;;;;;;;29.85;44.37;96451.31;5054555;28;20226;-52
2022/08/25 11:35:37;;;;;;;6.53;3.55;;;;;;;29.99;43.79;96455.16;5055326;28;20338;-52
2022/08/25 11:38:17;;;;;;;3.75;3.55;;;;;;;29.82;43.20;96449.09;5042781;28;20574;-52
2022/08/25 11:40:53;;;;;;;3.97;3.35;;;;;;;29.79;44.15;96449.66;5063263;28;20218;-51
2022/08/25 11:43:37;;;;;;;4.50;3.33;;;;;;;29.70;43.59;96448.50;5069089;28;20230;-52
2022/08/25 11:46:15;;;;;;;3.70;3.40;;;;;;;29.84;44.46;96450.50;5068776;28;20187;-52